CheckWX is a tool to help pilots better visualize weather data.  It is not intended as a substitute for an official pre-flight weather briefing.

09:59:47 UTC

GMMI METAR
Mogador Airport
Essaouira, Morocco
Current

60 mins ago

GMMI 210900Z 04006KT 350V050 8000 NSC 17/04 Q1016 NOSIG
Observed
Mar-21 @ 09:00 UTC
Wind
  • 040° at 6 KTS
Visibility
7,998 meters
Flight Rules
MVFR
Cloud Levels
  • Clear skies
Temperature
17°C / 63°F
Dewpoint
C / 39°F
Humidity
42%
Altimeter
30" Hg
Pressure
1015.92 hPa
Previous

2 hours ago

GMMI 210800Z 06006KT 8000 NSC 14/06 Q1016 NOSIG
Observed
Mar-21 @ 08:00 UTC
Wind
  • 060° at 6 KTS
Visibility
7,998 meters
Flight Rules
MVFR
Cloud Levels
  • Clear skies
Temperature
14°C / 57°F
Dewpoint
C / 43°F
Humidity
59%
Altimeter
30" Hg
Pressure
1015.92 hPa
Previous

3 hours ago

GMMI 210700Z 04006KT 8000 NSC 10/04 Q1015 NOSIG
Observed
Mar-21 @ 07:00 UTC
Wind
  • 040° at 6 KTS
Visibility
7,998 meters
Flight Rules
MVFR
Cloud Levels
  • Clear skies
Temperature
10°C / 50°F
Dewpoint
C / 39°F
Humidity
67%
Altimeter
29.97" Hg
Pressure
1014.92 hPa